Time;durP1;ratioP1;P1;durP2;ratioP2;P2;SDS_P1;SDS_P2;PMS_P1;PMS_P2;Temp;Humidity;BMP_temperature;BMP_pressure;BME280_temperature;BME280_humidity;BME280_pressure;Samples;Min_cycle;Max_cycle;Signal;HPM_P1;HPM_P2
2023/06/01 00:02:20;;;;;;;12.55;7.55;;;;;;;10.50;84.70;149933.63;5063849;28;20037;-67
2023/06/01 00:04:48;;;;;;;13.88;8.60;;;;;;;10.34;84.78;149892.56;5062699;28;20029;-67
2023/06/01 00:07:14;;;;;;;15.30;9.07;;;;;;;10.34;84.38;149892.56;5064002;28;20029;-68
2023/06/01 00:09:39;;;;;;;14.32;8.98;;;;;;;10.41;84.44;149910.50;5063368;28;20097;-67
2023/06/01 00:12:06;;;;;;;17.75;8.73;;;;;;;10.50;84.03;149933.63;5063842;28;20179;-67
2023/06/01 00:14:31;;;;;;;19.05;10.68;;;;;;;10.45;84.38;149920.78;5063618;28;20029;-66
2023/06/01 00:16:58;;;;;;;18.10;9.52;;;;;;;10.41;84.05;149910.50;5063852;28;20309;-66
2023/06/01 00:19:25;;;;;;;16.20;10.02;;;;;;;10.42;83.80;149913.09;5063584;28;20040;-69
2023/06/01 00:21:53;;;;;;;15.95;9.60;;;;;;;10.33;84.05;149889.94;5063528;28;20059;-68
2023/06/01 00:24:20;;;;;;;11.98;9.55;;;;;;;9.80;83.37;149759.16;5062235;28;20036;-68
2023/06/01 00:26:46;;;;;;;18.65;10.55;;;;;;;10.34;84.48;149892.56;5063408;28;20329;-67
2023/06/01 00:29:13;;;;;;;15.32;10.63;;;;;;;10.37;84.17;149900.25;5063411;28;20071;-68
2023/06/01 00:31:39;;;;;;;16.00;10.25;;;;;;;10.29;84.24;149881.00;5063174;28;20029;-66
2023/06/01 00:34:04;;;;;;;19.90;10.07;;;;;;;10.28;84.72;149877.16;5063274;28;20260;-67
2023/06/01 00:36:31;;;;;;;15.85;10.10;;;;;;;10.19;84.20;149856.63;5063185;28;20025;-66
2023/06/01 00:39:01;;;;;;;14.63;9.40;;;;;;;10.34;84.56;149893.81;5063233;28;20233;-67
2023/06/01 00:41:28;;;;;;;14.00;9.82;;;;;;;10.37;84.15;149900.25;5063208;28;20135;-67
2023/06/01 00:43:53;;;;;;;13.88;8.70;;;;;;;10.34;84.07;149893.81;5062213;28;20041;-67
2023/06/01 00:46:19;;;;;;;14.32;9.93;;;;;;;10.40;83.82;149907.94;5063487;28;20032;-67
2023/06/01 00:48:45;;;;;;;14.48;9.25;;;;;;;10.38;84.21;149902.81;5062987;28;20021;-66
2023/06/01 00:51:12;;;;;;;16.50;9.02;;;;;;;10.32;84.53;149887.41;5044610;28;20067;-68
2023/06/01 00:53:38;;;;;;;18.63;9.48;;;;;;;10.33;84.50;149889.94;5062867;28;20053;-68
2023/06/01 00:56:03;;;;;;;18.20;9.73;;;;;;;10.34;84.33;149893.81;5063394;28;20036;-68
2023/06/01 00:58:30;;;;;;;13.02;7.82;;;;;;;10.36;84.46;149897.66;5063255;28;20329;-68
2023/06/01 01:00:56;;;;;;;15.18;8.65;;;;;;;10.37;84.32;149900.25;5063309;28;20032;-67
2023/06/01 01:03:25;;;;;;;18.50;8.63;;;;;;;10.37;84.24;149900.25;5063488;28;20029;-67
2023/06/01 01:06:05;;;;;;;12.32;8.35;;;;;;;10.40;84.42;149907.94;5063655;28;20067;-66
2023/06/01 01:08:51;;;;;;;18.00;8.20;;;;;;;10.41;84.12;149910.50;5061817;28;20021;-66
2023/06/01 01:11:21;;;;;;;15.85;8.40;;;;;;;10.37;84.46;149900.25;5063208;28;20060;-66
2023/06/01 01:14:20;;;;;;;14.73;8.23;;;;;;;10.44;84.18;149918.19;5062849;28;20060;-66
2023/06/01 01:17:03;;;;;;;13.48;8.40;;;;;;;10.41;84.30;149910.50;5042844;28;20021;-66
2023/06/01 01:19:50;;;;;;;15.32;7.45;;;;;;;10.33;84.22;149889.94;5061717;28;20025;-66
2023/06/01 01:22:35;;;;;;;16.27;7.63;;;;;;;10.16;84.73;149848.94;5062613;28;20047;-66
2023/06/01 01:25:37;;;;;;;13.88;8.05;;;;;;;10.27;84.01;149875.84;5062630;28;20092;-66
2023/06/01 01:28:08;;;;;;;12.93;7.30;;;;;;;10.19;84.12;149856.63;5062745;28;20090;-67
2023/06/01 01:30:40;;;;;;;16.73;8.40;;;;;;;10.19;83.97;149855.34;5062622;28;20086;-67
2023/06/01 01:33:06;;;;;;;12.68;7.45;;;;;;;10.22;84.31;149861.72;5061388;28;20100;-67
2023/06/01 01:35:33;;;;;;;14.57;7.85;;;;;;;10.22;84.06;149861.72;5062340;28;20036;-67
2023/06/01 01:37:59;;;;;;;14.70;7.50;;;;;;;10.24;83.90;149868.16;5062569;28;20051;-66
2023/06/01 01:40:25;;;;;;;14.18;7.68;;;;;;;10.29;83.89;149881.00;5062071;28;20021;-67
2023/06/01 01:42:52;;;;;;;10.30;6.65;;;;;;;10.19;83.49;149856.63;5050661;28;20076;-67
2023/06/01 01:45:19;;;;;;;14.63;7.60;;;;;;;10.29;83.83;149881.00;5055344;28;20214;-67
2023/06/01 01:47:56;;;;;;;13.90;7.25;;;;;;;10.31;83.73;149884.81;5065981;28;20036;-67
2023/06/01 01:50:27;;;;;;;13.65;7.70;;;;;;;10.30;83.34;149882.25;5065081;28;20024;-67
2023/06/01 01:52:55;;;;;;;13.38;7.00;;;;;;;10.00;83.80;149807.88;5046326;28;20083;-67
2023/06/01 01:55:24;;;;;;;12.15;6.70;;;;;;;10.24;84.07;149866.88;5063747;28;20040;-67
2023/06/01 01:57:55;;;;;;;12.90;6.57;;;;;;;10.31;84.28;149886.09;5066264;28;20029;-65
2023/06/01 02:00:22;;;;;;;12.48;6.90;;;;;;;10.26;84.71;149872.00;5066390;28;20024;-67
2023/06/01 02:02:48;;;;;;;12.35;6.60;;;;;;;10.27;84.44;149874.56;5065907;28;20025;-68
2023/06/01 02:05:13;;;;;;;11.85;6.85;;;;;;;10.18;84.77;149854.03;5066356;28;20052;-67
2023/06/01 02:07:39;;;;;;;8.02;6.18;;;;;;;10.29;84.15;149881.00;5066121;28;20307;-66
2023/06/01 02:10:05;;;;;;;9.75;6.43;;;;;;;10.32;84.07;149887.41;5066012;28;20328;-67
2023/06/01 02:12:31;;;;;;;10.88;6.10;;;;;;;10.31;83.90;149886.09;5054125;28;20030;-66
2023/06/01 02:14:57;;;;;;;9.68;6.70;;;;;;;10.34;83.85;149892.56;5050488;28;20066;-67
2023/06/01 02:17:25;;;;;;;8.45;5.80;;;;;;;10.34;83.70;149892.56;5065946;28;20294;-67
2023/06/01 02:19:50;;;;;;;11.02;6.00;;;;;;;10.38;83.52;149902.81;5065792;28;20029;-67
2023/06/01 02:22:16;;;;;;;9.90;6.43;;;;;;;10.42;82.96;149911.78;5064692;28;20055;-67
2023/06/01 02:24:42;;;;;;;10.73;6.95;;;;;;;10.54;83.03;149942.56;5065224;28;20041;-66
2023/06/01 02:27:07;;;;;;;10.30;5.40;;;;;;;10.68;82.52;149978.47;5065766;28;20044;-66
2023/06/01 02:29:33;;;;;;;10.25;5.28;;;;;;;10.75;82.13;149993.91;5065401;28;20033;-67
2023/06/01 02:31:59;;;;;;;9.80;6.00;;;;;;;10.76;82.14;149997.75;5065772;28;20227;-67
2023/06/01 02:34:25;;;;;;;11.82;6.13;;;;;;;10.77;82.53;150000.28;5065710;28;20051;-67
2023/06/01 02:36:50;;;;;;;15.00;5.90;;;;;;;10.60;80.84;149957.94;5065612;28;20039;-67
2023/06/01 02:39:16;;;;;;;10.75;5.97;;;;;;;11.02;80.37;150061.88;5065602;28;20313;-66
2023/06/01 02:41:42;;;;;;;11.48;5.55;;;;;;;11.00;81.13;150056.72;5045160;28;20025;-66
2023/06/01 02:44:08;;;;;;;12.02;6.10;;;;;;;11.11;80.56;150084.94;5045685;28;20037;-67
2023/06/01 02:46:34;;;;;;;9.73;5.72;;;;;;;11.10;78.98;150082.41;5063979;28;20221;-67
2023/06/01 02:48:59;;;;;;;9.90;5.45;;;;;;;11.20;78.67;150108.06;5065191;28;20028;-67
2023/06/01 02:51:25;;;;;;;11.43;5.88;;;;;;;11.12;77.15;150087.53;5064253;28;20048;-67
2023/06/01 02:53:51;;;;;;;14.02;5.72;;;;;;;11.28;78.04;150127.28;5065812;28;20025;-67
2023/06/01 02:56:17;;;;;;;9.95;5.47;;;;;;;11.49;78.61;150179.91;5065698;28;20024;-65
2023/06/01 02:58:42;;;;;;;11.00;5.57;;;;;;;11.39;78.36;150154.25;5065557;28;20032;-66
2023/06/01 03:01:11;;;;;;;13.63;5.88;;;;;;;11.50;76.18;150182.50;5064960;28;20053;-67
2023/06/01 03:03:38;;;;;;;17.48;5.68;;;;;;;11.59;75.90;150204.31;5063895;28;20047;-67
2023/06/01 03:06:05;;;;;;;12.63;5.53;;;;;;;11.63;76.00;150213.25;5065329;28;20041;-67
2023/06/01 03:08:31;;;;;;;14.98;6.10;;;;;;;11.65;76.22;150218.41;5064911;28;20326;-67
2023/06/01 03:10:57;;;;;;;14.10;6.70;;;;;;;11.77;75.92;150247.94;5065218;28;20029;-67
2023/06/01 03:13:23;;;;;;;14.80;5.82;;;;;;;11.71;75.78;150233.81;5064937;28;20104;-69
2023/06/01 03:15:50;;;;;;;11.60;6.10;;;;;;;11.73;75.60;150240.22;5064614;28;20071;-68
2023/06/01 03:18:15;;;;;;;9.52;6.22;;;;;;;11.97;76.19;150299.34;5064690;28;20044;-69
2023/06/01 03:20:41;;;;;;;14.32;6.13;;;;;;;11.98;74.77;150300.63;5064516;28;20028;-67
2023/06/01 03:23:07;;;;;;;11.68;5.68;;;;;;;12.15;75.31;150344.25;5064429;28;20356;-67
2023/06/01 03:25:33;;;;;;;10.02;5.43;;;;;;;12.20;74.57;150357.13;5064408;28;20017;-68
2023/06/01 03:27:59;;;;;;;9.30;6.07;;;;;;;12.21;74.12;150359.69;5064585;28;20036;-68
2023/06/01 03:30:25;;;;;;;10.75;5.95;;;;;;;12.33;74.09;150387.94;5064391;28;20039;-68
2023/06/01 03:32:51;;;;;;;16.63;6.03;;;;;;;12.30;73.68;150380.19;5064344;28;20044;-68
2023/06/01 03:35:17;;;;;;;11.02;5.20;;;;;;;12.53;73.57;150439.28;5063598;28;20096;-66
2023/06/01 03:37:45;;;;;;;10.57;5.20;;;;;;;12.65;73.46;150468.81;5064144;28;20029;-67
2023/06/01 03:40:11;;;;;;;11.20;4.88;;;;;;;12.78;72.92;150500.94;5064180;28;20017;-67
2023/06/01 03:42:38;;;;;;;11.60;5.50;;;;;;;12.87;72.50;150524.06;5064313;28;20024;-67
2023/06/01 03:45:04;;;;;;;6.43;4.75;;;;;;;12.90;72.65;150531.78;5064278;28;20588;-67
2023/06/01 03:47:30;;;;;;;8.82;4.78;;;;;;;13.03;71.79;150563.91;5064186;28;20209;-67
2023/06/01 03:49:58;;;;;;;8.88;4.57;;;;;;;12.95;70.34;150543.34;5063972;28;20024;-66
2023/06/01 03:52:25;;;;;;;10.63;4.65;;;;;;;13.00;70.48;150554.88;5062904;28;20041;-67
2023/06/01 03:54:51;;;;;;;8.55;4.82;;;;;;;13.23;71.23;150612.75;5063956;28;20179;-66
2023/06/01 03:57:17;;;;;;;13.68;5.43;;;;;;;13.35;70.81;150642.34;5063972;28;20037;-66
2023/06/01 03:59:42;;;;;;;15.80;4.35;;;;;;;13.16;69.90;150596.03;5063791;28;20064;-67
2023/06/01 04:02:11;;;;;;;13.60;5.13;;;;;;;13.23;70.86;150614.00;5064451;28;20029;-67
2023/06/01 04:04:36;;;;;;;10.80;5.03;;;;;;;13.20;70.03;150606.31;5063490;28;20055;-67
2023/06/01 04:07:03;;;;;;;10.10;4.43;;;;;;;13.64;70.06;150716.88;5063645;28;20045;-67
2023/06/01 04:09:32;;;;;;;10.43;4.88;;;;;;;13.53;69.89;150687.31;5062344;28;20082;-66
2023/06/01 04:11:57;;;;;;;9.15;5.07;;;;;;;13.74;70.06;150740.03;5063591;28;20029;-66
2023/06/01 04:14:23;;;;;;;11.88;5.20;;;;;;;13.81;69.26;150759.31;5063724;28;20048;-67
2023/06/01 04:16:49;;;;;;;12.77;5.15;;;;;;;13.72;69.76;150734.88;5057127;28;20032;-67
2023/06/01 04:19:15;;;;;;;13.60;5.35;;;;;;;13.76;68.87;150746.44;5063723;28;20033;-68
2023/06/01 04:21:41;;;;;;;9.52;4.97;;;;;;;13.83;67.90;150763.16;5063541;28;20360;-67
2023/06/01 04:24:06;;;;;;;7.05;5.05;;;;;;;14.00;68.84;150805.59;5063606;28;20056;-67
2023/06/01 04:26:32;;;;;;;10.77;5.15;;;;;;;14.00;67.48;150804.31;5063351;28;20248;-67
2023/06/01 04:28:58;;;;;;;9.82;4.57;;;;;;;14.17;66.92;150846.75;5062750;28;20334;-66
2023/06/01 04:31:24;;;;;;;17.27;5.15;;;;;;;14.18;69.18;150850.59;5063695;28;20043;-66
2023/06/01 04:33:53;;;;;;;12.70;5.47;;;;;;;14.19;67.58;150851.88;5063247;28;20079;-66
2023/06/01 04:36:23;;;;;;;9.45;4.47;;;;;;;14.48;67.50;150925.19;5063011;28;20040;-67
2023/06/01 04:38:57;;;;;;;7.38;4.63;;;;;;;14.58;66.53;150949.59;5063238;28;20029;-68
2023/06/01 04:41:23;;;;;;;10.77;4.45;;;;;;;14.72;66.65;150985.72;5062516;28;20025;-67
2023/06/01 04:43:51;;;;;;;8.02;4.63;;;;;;;14.71;64.91;150981.81;5062980;28;20037;-67
2023/06/01 04:46:19;;;;;;;5.97;4.00;;;;;;;14.63;64.64;150963.78;5063383;28;20186;-66
2023/06/01 04:48:46;;;;;;;16.27;4.63;;;;;;;14.82;64.44;151010.09;5062572;28;20049;-66
2023/06/01 04:51:19;;;;;;;8.07;4.00;;;;;;;14.85;60.67;151017.88;5063245;28;20021;-67
2023/06/01 04:53:49;;;;;;;9.93;3.85;;;;;;;15.01;61.82;151059.00;5063031;28;20040;-66
2023/06/01 04:56:18;;;;;;;8.63;3.75;;;;;;;15.20;62.40;151105.34;5063108;28;20048;-67
2023/06/01 04:58:47;;;;;;;6.05;3.83;;;;;;;15.28;61.03;151124.66;5062926;28;20354;-68
2023/06/01 05:01:15;;;;;;;7.35;3.92;;;;;;;15.33;60.91;151138.84;5062728;28;20091;-67
2023/06/01 05:03:45;;;;;;;10.13;3.92;;;;;;;15.45;60.32;151167.09;5062500;28;20067;-68
2023/06/01 05:06:12;;;;;;;7.45;3.90;;;;;;;15.60;60.56;151204.44;5062544;28;20086;-68
2023/06/01 05:08:41;;;;;;;14.05;4.05;;;;;;;15.68;58.85;151226.31;5062836;28;20071;-68
2023/06/01 05:11:09;;;;;;;7.43;3.67;;;;;;;15.79;58.74;151252.13;5062943;28;20249;-68
2023/06/01 05:13:38;;;;;;;9.75;3.95;;;;;;;16.07;59.16;151321.66;5062679;28;20028;-69
2023/06/01 05:16:05;;;;;;;11.05;3.97;;;;;;;15.80;56.41;151255.97;5062911;28;20028;-68
2023/06/01 05:18:32;;;;;;;9.30;3.70;;;;;;;15.63;57.10;151213.44;5065857;28;20048;-68
2023/06/01 05:20:57;;;;;;;11.52;3.45;;;;;;;16.43;56.65;151411.78;5066761;28;20029;-69
2023/06/01 05:23:24;;;;;;;7.45;3.05;;;;;;;16.34;55.77;151389.91;5067270;28;20029;-69
2023/06/01 05:25:50;;;;;;;10.43;3.63;;;;;;;16.79;56.70;151501.97;5065420;28;20044;-70
2023/06/01 05:28:16;;;;;;;6.93;3.55;;;;;;;16.61;55.32;151456.91;5061913;28;20198;-69
2023/06/01 05:30:41;;;;;;;7.85;3.55;;;;;;;16.62;55.42;151460.75;5066601;28;20092;-68
2023/06/01 05:33:07;;;;;;;5.80;3.38;;;;;;;16.62;54.89;151460.75;5067078;28;20090;-69
2023/06/01 05:35:32;;;;;;;8.43;3.55;;;;;;;16.74;54.09;151490.38;5066511;28;20032;-68
2023/06/01 05:37:58;;;;;;;9.50;3.45;;;;;;;16.95;54.67;151541.97;5066947;28;20044;-69
2023/06/01 05:40:24;;;;;;;11.18;3.60;;;;;;;17.15;55.47;151593.50;5066528;28;20028;-69
2023/06/01 05:42:50;;;;;;;8.80;3.35;;;;;;;17.00;53.85;151554.84;5065413;28;20032;-69
2023/06/01 05:45:15;;;;;;;5.40;3.17;;;;;;;16.65;53.52;151467.22;5066405;28;20043;-67
2023/06/01 05:47:41;;;;;;;5.60;3.40;;;;;;;17.27;53.43;151621.88;5064232;28;20045;-68
2023/06/01 05:50:07;;;;;;;10.32;3.80;;;;;;;17.32;54.50;151636.03;5066411;28;20143;-65
2023/06/01 05:52:32;;;;;;;9.13;3.67;;;;;;;17.31;54.44;151632.19;5065841;28;20052;-68
2023/06/01 05:54:58;;;;;;;7.35;3.50;;;;;;;17.54;54.04;151691.47;5065965;28;20125;-69
2023/06/01 05:57:23;;;;;;;8.70;4.47;;;;;;;17.62;54.62;151709.53;5066588;28;20021;-68
2023/06/01 05:59:49;;;;;;;11.32;4.18;;;;;;;17.52;52.25;151685.03;5066044;28;20036;-70
2023/06/01 06:02:15;;;;;;;10.02;3.72;;;;;;;17.70;53.70;151731.44;5066174;28;20090;-71
2023/06/01 06:04:41;;;;;;;8.25;3.03;;;;;;;17.79;52.08;151753.34;5061156;28;20021;-69
2023/06/01 06:07:06;;;;;;;6.20;2.80;;;;;;;17.71;50.22;151733.97;5065962;28;20046;-69
2023/06/01 06:09:33;;;;;;;5.10;2.70;;;;;;;17.82;50.23;151759.81;5065243;28;20245;-69
2023/06/01 06:11:59;;;;;;;9.30;2.60;;;;;;;17.75;49.08;151744.31;5065658;28;20053;-69
2023/06/01 06:14:25;;;;;;;5.38;3.10;;;;;;;17.88;48.80;151775.25;5065426;28;20298;-69
2023/06/01 06:16:51;;;;;;;6.15;3.45;;;;;;;17.92;49.09;151785.63;5064291;28;20520;-68
2023/06/01 06:19:16;;;;;;;7.40;3.20;;;;;;;17.97;48.46;151797.22;5065459;28;20230;-66
2023/06/01 06:21:42;;;;;;;6.43;3.10;;;;;;;17.89;45.94;151779.13;5064957;28;20043;-67
2023/06/01 06:24:08;;;;;;;3.65;2.75;;;;;;;18.00;46.27;151804.94;5065282;28;20017;-68
2023/06/01 06:26:34;;;;;;;4.68;2.55;;;;;;;18.03;47.07;151814.00;5065336;28;20025;-67
2023/06/01 06:29:00;;;;;;;4.88;2.78;;;;;;;18.14;49.40;151839.78;5063258;28;20035;-68
2023/06/01 06:31:25;;;;;;;6.95;3.00;;;;;;;18.15;46.87;151843.66;5064143;28;20049;-67
2023/06/01 06:33:51;;;;;;;5.95;2.55;;;;;;;18.32;47.65;151886.19;5065225;28;20032;-68
2023/06/01 06:36:17;;;;;;;6.13;2.60;;;;;;;18.38;46.67;151901.66;5064120;28;20059;-68
2023/06/01 06:38:42;;;;;;;4.78;2.50;;;;;;;18.38;46.57;151900.38;5065176;28;20033;-68
2023/06/01 06:41:08;;;;;;;6.80;2.40;;;;;;;18.46;46.27;151922.31;5065051;28;20039;-69
2023/06/01 06:43:34;;;;;;;6.82;2.15;;;;;;;18.58;46.46;151952.00;5064802;28;20055;-67
2023/06/01 06:45:59;;;;;;;3.45;2.35;;;;;;;18.59;47.23;151954.56;5064655;28;20036;-67
2023/06/01 06:48:25;;;;;;;3.75;2.38;;;;;;;18.58;46.46;151950.69;5064033;28;20037;-68
2023/06/01 06:50:51;;;;;;;8.68;2.35;;;;;;;18.62;45.24;151961.03;5064722;28;20039;-67
2023/06/01 06:53:17;;;;;;;5.68;2.55;;;;;;;18.68;45.01;151975.22;5065191;28;20060;-66
2023/06/01 06:55:44;;;;;;;4.90;2.35;;;;;;;18.73;44.88;151989.41;5064684;28;20092;-66
2023/06/01 06:58:10;;;;;;;4.65;1.88;;;;;;;18.73;44.71;151988.13;5064664;28;20035;-67
2023/06/01 07:00:37;;;;;;;6.32;2.53;;;;;;;18.71;43.53;151984.25;5063774;28;20021;-67
2023/06/01 07:03:03;;;;;;;8.75;2.53;;;;;;;18.62;43.49;151962.28;5063527;28;20025;-68
2023/06/01 07:05:29;;;;;;;3.55;2.00;;;;;;;18.73;43.67;151989.41;5079809;28;20037;-68
2023/06/01 07:07:55;;;;;;;5.43;2.10;;;;;;;18.99;44.49;152053.97;5063314;28;20094;-68
2023/06/01 07:10:21;;;;;;;10.00;2.25;;;;;;;18.98;44.62;152051.38;5064816;28;20333;-67
2023/06/01 07:12:46;;;;;;;4.50;2.15;;;;;;;19.04;43.71;152066.88;5064723;28;20040;-69
2023/06/01 07:15:12;;;;;;;10.63;2.60;;;;;;;18.94;43.91;152041.03;5063277;28;20025;-67
2023/06/01 07:17:38;;;;;;;7.07;2.03;;;;;;;19.20;44.15;152105.59;5064131;28;20029;-67
2023/06/01 07:20:06;;;;;;;6.22;2.33;;;;;;;19.24;43.85;152115.88;5064515;28;20025;-69
2023/06/01 07:22:33;;;;;;;9.98;2.72;;;;;;;19.23;44.36;152113.34;5064160;28;20033;-69
2023/06/01 07:24:58;;;;;;;4.90;2.20;;;;;;;19.30;45.11;152131.41;5064184;28;20056;-67
2023/06/01 07:27:24;;;;;;;7.05;2.33;;;;;;;19.20;42.68;152105.59;5064005;28;20036;-68
2023/06/01 07:29:55;;;;;;;6.68;2.30;;;;;;;19.06;42.89;152072.03;5064166;28;20318;-69
2023/06/01 07:32:25;;;;;;;6.72;1.98;;;;;;;19.15;43.30;152093.94;5063987;28;20029;-68
2023/06/01 07:34:51;;;;;;;5.32;2.28;;;;;;;19.22;43.63;152110.75;5063373;28;20033;-68
2023/06/01 07:37:21;;;;;;;5.03;2.40;;;;;;;19.35;44.17;152144.28;5062634;28;20032;-68
2023/06/01 07:39:48;;;;;;;8.88;2.22;;;;;;;19.37;44.80;152149.47;5062884;28;20110;-71
2023/06/01 07:42:14;;;;;;;3.97;1.90;;;;;;;19.53;43.85;152189.47;5063815;28;20036;-70
2023/06/01 07:44:40;;;;;;;4.70;2.25;;;;;;;19.56;44.78;152195.94;5062852;28;20044;-69
2023/06/01 07:47:05;;;;;;;6.82;2.00;;;;;;;19.66;44.71;152223.00;5066861;28;20043;-71
2023/06/01 07:49:31;;;;;;;6.38;2.70;;;;;;;19.70;43.57;152232.06;5056423;28;20026;-69
2023/06/01 07:51:58;;;;;;;6.95;2.17;;;;;;;19.76;42.55;152247.53;5055492;28;20058;-70
2023/06/01 07:54:24;;;;;;;5.05;2.15;;;;;;;19.90;43.07;152281.19;5065607;28;20033;-68
2023/06/01 07:56:50;;;;;;;3.95;2.55;;;;;;;19.91;43.26;152283.75;5064708;28;20040;-68
2023/06/01 07:59:16;;;;;;;10.23;2.10;;;;;;;19.81;41.04;152259.25;5064668;28;20062;-69
2023/06/01 08:01:42;;;;;;;6.93;2.15;;;;;;;19.98;42.42;152301.81;5064974;28;20052;-70
2023/06/01 08:04:08;;;;;;;6.57;2.45;;;;;;;20.01;41.06;152309.59;5064912;28;20036;-69
2023/06/01 08:06:38;;;;;;;3.83;2.33;;;;;;;20.04;41.57;152317.34;5061712;28;20306;-67
2023/06/01 08:09:04;;;;;;;6.07;2.20;;;;;;;20.07;42.76;152323.81;5051139;28;20327;-69
2023/06/01 08:11:29;;;;;;;4.32;2.30;;;;;;;20.28;42.66;152376.72;5067027;28;20096;-68
2023/06/01 08:13:55;;;;;;;5.03;2.28;;;;;;;20.27;43.32;152375.44;5066912;28;20037;-69
2023/06/01 08:16:20;;;;;;;4.53;2.03;;;;;;;20.21;42.68;152358.63;5062425;28;20048;-70
2023/06/01 08:18:46;;;;;;;5.60;2.40;;;;;;;20.27;42.05;152374.16;5058577;28;20056;-68
2023/06/01 08:21:12;;;;;;;5.93;2.15;;;;;;;20.24;40.25;152367.69;5063143;28;20025;-70
2023/06/01 08:23:38;;;;;;;5.97;2.42;;;;;;;20.21;39.74;152358.63;5045282;28;20029;-70
2023/06/01 08:26:04;;;;;;;7.20;2.47;;;;;;;20.38;42.06;152402.56;5063129;28;20096;-69
2023/06/01 08:28:32;;;;;;;6.85;2.50;;;;;;;20.45;41.15;152420.66;5062526;28;20269;-69
2023/06/01 08:30:57;;;;;;;10.55;2.00;;;;;;;20.55;40.31;152445.22;5062389;28;20213;-69
2023/06/01 08:33:23;;;;;;;7.43;1.92;;;;;;;20.51;40.01;152434.88;5062375;28;20025;-69
2023/06/01 08:35:49;;;;;;;7.15;2.10;;;;;;;20.58;40.30;152452.94;5058725;28;20526;-69
2023/06/01 08:38:14;;;;;;;8.02;2.58;;;;;;;20.63;39.67;152465.84;5062768;28;20305;-69
2023/06/01 08:40:40;;;;;;;4.43;2.13;;;;;;;20.45;39.28;152420.66;5062545;28;20036;-69
2023/06/01 08:43:17;;;;;;;5.68;1.95;;;;;;;20.48;39.98;152428.41;5063000;28;20190;-71
2023/06/01 08:45:43;;;;;;;4.72;2.17;;;;;;;20.66;40.86;152472.31;5062253;28;20033;-69
2023/06/01 08:48:17;;;;;;;5.05;1.90;;;;;;;20.57;40.31;152449.06;5061707;28;20048;-69
2023/06/01 08:50:48;;;;;;;6.05;2.00;;;;;;;20.60;42.58;152456.81;5060431;28;20036;-70
2023/06/01 08:53:18;;;;;;;8.52;2.72;;;;;;;20.78;40.53;152502.03;5061541;28;20052;-69
2023/06/01 08:55:46;;;;;;;6.82;1.92;;;;;;;20.68;40.18;152478.81;5061310;28;20120;-69
2023/06/01 08:58:13;;;;;;;6.70;2.83;;;;;;;20.84;40.29;152517.59;5061862;28;20102;-69
2023/06/01 09:00:40;;;;;;;5.90;2.50;;;;;;;20.86;40.58;152522.72;5059946;28;20041;-69
2023/06/01 09:03:06;;;;;;;4.07;2.20;;;;;;;21.05;40.43;152570.56;5060252;28;20033;-69
2023/06/01 09:05:32;;;;;;;5.55;2.95;;;;;;;21.13;40.86;152591.19;5061336;28;20087;-68
2023/06/01 09:07:57;;;;;;;9.02;2.45;;;;;;;21.01;38.29;152560.22;5062716;28;20060;-69
2023/06/01 09:10:27;;;;;;;5.97;2.13;;;;;;;21.01;39.59;152561.50;5061394;28;20062;-68
2023/06/01 09:12:54;;;;;;;6.22;2.38;;;;;;;21.17;41.28;152600.28;5062559;28;20329;-69
2023/06/01 09:15:20;;;;;;;6.28;2.50;;;;;;;21.17;40.73;152601.53;5057745;28;20032;-69
2023/06/01 09:17:51;;;;;;;7.10;2.25;;;;;;;20.78;41.80;152503.38;5054854;28;20032;-68
2023/06/01 09:20:27;;;;;;;6.85;2.53;;;;;;;21.20;40.25;152609.28;5062575;28;20017;-69
2023/06/01 09:22:54;;;;;;;9.82;2.42;;;;;;;21.14;40.18;152592.53;5062544;28;20317;-70
2023/06/01 09:25:31;;;;;;;7.15;2.45;;;;;;;21.32;39.91;152637.72;5062326;28;20028;-68
2023/06/01 09:27:58;;;;;;;3.13;2.13;;;;;;;21.24;40.40;152617.09;5062263;28;20040;-69
2023/06/01 09:30:36;;;;;;;6.35;2.20;;;;;;;21.29;39.10;152629.97;5061670;28;20025;-69
2023/06/01 09:33:14;;;;;;;5.70;2.20;;;;;;;21.35;40.31;152645.50;5057206;28;20085;-69
2023/06/01 09:35:49;;;;;;;6.93;2.22;;;;;;;21.39;39.99;152655.81;5062272;28;20043;-68
2023/06/01 09:38:26;;;;;;;4.35;1.90;;;;;;;21.41;38.58;152661.00;5042611;28;20040;-68
2023/06/01 09:41:02;;;;;;;9.40;2.45;;;;;;;21.30;37.85;152633.84;5059608;28;20071;-70
2023/06/01 09:43:28;;;;;;;3.28;2.50;;;;;;;21.42;38.82;152663.59;5062187;28;20139;-68
2023/06/01 09:46:06;;;;;;;4.97;2.33;;;;;;;21.64;39.77;152717.94;5062036;28;20048;-68
2023/06/01 09:48:31;;;;;;;6.43;2.45;;;;;;;21.49;38.62;152680.38;5060585;28;20025;-68
2023/06/01 09:50:57;;;;;;;6.28;2.72;;;;;;;21.55;38.28;152697.25;5061936;28;20035;-67
2023/06/01 09:53:22;;;;;;;6.43;2.30;;;;;;;21.57;39.24;152701.13;5060414;28;20045;-69
2023/06/01 09:55:59;;;;;;;6.03;2.63;;;;;;;21.52;37.18;152688.16;5060022;28;20120;-70
2023/06/01 09:58:25;;;;;;;5.75;2.58;;;;;;;21.46;37.75;152673.94;5075453;28;20029;-70
2023/06/01 10:00:51;;;;;;;3.83;2.20;;;;;;;21.48;37.80;152677.81;5062092;28;20140;-70
2023/06/01 10:03:19;;;;;;;6.18;2.50;;;;;;;21.58;37.75;152702.38;5062728;28;20032;-71
2023/06/01 10:05:46;;;;;;;4.55;2.35;;;;;;;21.72;37.87;152738.63;5065552;28;20111;-69
2023/06/01 10:08:13;;;;;;;8.90;2.72;;;;;;;21.75;37.92;152746.38;5065759;28;20040;-69
2023/06/01 10:10:41;;;;;;;7.20;3.05;;;;;;;21.73;38.32;152741.16;5065329;28;20025;-68
2023/06/01 10:13:07;;;;;;;7.38;2.45;;;;;;;21.83;36.55;152765.75;5065944;28;20037;-70
2023/06/01 10:15:33;;;;;;;9.10;2.30;;;;;;;21.93;38.50;152791.59;5065632;28;20079;-70
2023/06/01 10:18:00;;;;;;;5.20;2.25;;;;;;;21.97;37.79;152800.66;5065929;28;20028;-70
2023/06/01 10:20:26;;;;;;;5.13;2.40;;;;;;;21.97;37.34;152800.66;5065636;28;20217;-69
2023/06/01 10:22:52;;;;;;;3.95;2.42;;;;;;;21.85;37.67;152772.22;5065554;28;20028;-69
2023/06/01 10:25:22;;;;;;;5.32;2.20;;;;;;;21.86;36.28;152774.81;5065415;28;20222;-70
2023/06/01 10:28:07;;;;;;;6.20;2.28;;;;;;;21.96;36.93;152799.38;5065272;28;20048;-70
2023/06/01 10:30:34;;;;;;;3.40;2.20;;;;;;;21.80;37.21;152759.28;5061834;28;20302;-69
2023/06/01 10:33:00;;;;;;;6.65;2.70;;;;;;;21.79;36.45;152756.72;5065289;28;20025;-68
2023/06/01 10:35:25;;;;;;;5.47;2.05;;;;;;;21.71;34.65;152736.03;5062491;28;20033;-70
2023/06/01 10:38:06;;;;;;;9.25;3.13;;;;;;;21.61;34.32;152711.47;5063283;28;20036;-68
2023/06/01 10:40:39;;;;;;;7.45;2.38;;;;;;;21.64;34.68;152719.22;5064449;28;20377;-70
2023/06/01 10:43:08;;;;;;;4.93;2.05;;;;;;;21.76;35.49;152748.91;5065355;28;20033;-70
2023/06/01 10:45:33;;;;;;;6.15;2.15;;;;;;;21.88;36.12;152778.69;5064886;28;20078;-69
2023/06/01 10:48:00;;;;;;;4.13;2.50;;;;;;;21.92;35.84;152787.72;5065092;28;20029;-69
2023/06/01 10:50:26;;;;;;;6.55;2.47;;;;;;;22.02;36.19;152814.88;5064548;28;20025;-69
2023/06/01 10:52:55;;;;;;;7.45;2.20;;;;;;;21.78;35.87;152754.13;5062067;28;20036;-68
2023/06/01 10:55:26;;;;;;;5.03;2.17;;;;;;;21.90;35.93;152783.84;5062640;28;20024;-68
2023/06/01 10:58:11;;;;;;;7.07;2.60;;;;;;;21.84;36.82;152769.63;5063342;28;20037;-67
2023/06/01 11:00:41;;;;;;;7.50;2.83;;;;;;;21.85;35.64;152770.94;5064304;28;20029;-68
2023/06/01 11:03:06;;;;;;;3.40;2.40;;;;;;;21.92;35.86;152789.03;5063443;28;20054;-68
2023/06/01 11:05:50;;;;;;;6.20;2.33;;;;;;;22.04;37.16;152820.03;5064445;28;20064;-69
2023/06/01 11:08:21;;;;;;;4.93;2.28;;;;;;;22.08;36.33;152829.09;5043648;28;20045;-69
2023/06/01 11:10:50;;;;;;;7.03;2.45;;;;;;;22.04;35.16;152818.75;5060738;28;20103;-68
2023/06/01 11:13:18;;;;;;;5.55;2.40;;;;;;;22.02;35.67;152813.59;5064749;28;20033;-68
2023/06/01 11:16:22;;;;;;;3.97;2.03;;;;;;;22.06;34.48;152823.91;5051880;28;20045;-68
2023/06/01 11:19:10;;;;;;;6.15;2.20;;;;;;;21.83;35.41;152767.06;5064631;28;20037;-68
2023/06/01 11:21:43;;;;;;;7.18;2.40;;;;;;;21.84;34.62;152769.63;5064099;28;20021;-67
2023/06/01 11:24:14;;;;;;;7.38;2.30;;;;;;;21.88;35.96;152779.97;5065006;28;20321;-68
2023/06/01 11:26:46;;;;;;;2.90;2.10;;;;;;;22.02;34.75;152814.88;5063180;28;20190;-68